createdAt,value
2022-11-05T00:00:04.080Z,100197.75
2022-11-05T00:02:54.532Z,100196.63
2022-11-05T00:05:45.012Z,100183.00
2022-11-05T00:08:35.431Z,100183.00
2022-11-05T00:11:09.772Z,100187.34
2022-11-05T00:14:04.773Z,100190.22
2022-11-05T00:16:47.750Z,100192.41
2022-11-05T00:19:20.528Z,100178.19
2022-11-05T00:22:10.587Z,100183.44
2022-11-05T00:25:01.052Z,100184.09
2022-11-05T00:27:34.739Z,100168.00
2022-11-05T00:30:10.703Z,100161.91
2022-11-05T00:32:43.777Z,100159.19
2022-11-05T00:35:17.473Z,100165.28
2022-11-05T00:39:41.369Z,100166.13
2022-11-05T00:42:31.432Z,100160.16
2022-11-05T00:45:04.913Z,100162.09
2022-11-05T00:47:54.949Z,100157.19
2022-11-05T00:50:28.352Z,100165.81
2022-11-05T00:53:01.541Z,100169.59
2022-11-05T00:55:39.063Z,100168.28
2022-11-05T00:58:13.790Z,100172.13
2022-11-05T01:00:50.497Z,100176.03
2022-11-05T01:03:25.322Z,100178.75
2022-11-05T01:06:00.053Z,100171.38
2022-11-05T01:08:32.845Z,100174.84
2022-11-05T01:11:12.993Z,100174.09
2022-11-05T01:13:45.773Z,100176.34
2022-11-05T01:16:18.656Z,100169.91
2022-11-05T01:18:51.443Z,100159.03
2022-11-05T01:21:24.303Z,100159.63
2022-11-05T01:23:57.171Z,100165.44
2022-11-05T01:26:31.590Z,100156.69
2022-11-05T01:29:04.470Z,100163.38
2022-11-05T01:31:37.396Z,100158.66
2022-11-05T01:34:10.324Z,100149.41
2022-11-05T01:36:43.183Z,100150.44
2022-11-05T01:39:16.126Z,100148.25
2022-11-05T01:41:50.339Z,100156.88
2022-11-05T01:45:03.725Z,100154.16
2022-11-05T01:47:43.304Z,100141.97
2022-11-05T01:50:27.184Z,100146.78
2022-11-05T01:53:06.203Z,100145.66
2022-11-05T01:55:43.554Z,100146.19
2022-11-05T01:58:22.518Z,100140.22
2022-11-05T02:00:56.308Z,100138.53
2022-11-05T02:03:30.137Z,100136.19
2022-11-05T02:06:04.803Z,100137.56
2022-11-05T02:08:56.038Z,100134.69
2022-11-05T02:11:29.054Z,100132.31
2022-11-05T02:14:03.275Z,100128.19
2022-11-05T02:16:41.383Z,100127.88
2022-11-05T02:19:40.209Z,100132.38
2022-11-05T02:22:55.247Z,100129.91
2022-11-05T02:25:55.740Z,100121.59
2022-11-05T02:28:50.996Z,100116.66
2022-11-05T02:31:35.311Z,100119.91
2022-11-05T02:34:17.442Z,100121.09
2022-11-05T02:36:57.327Z,100121.09
2022-11-05T02:39:47.383Z,100115.47
2022-11-05T02:42:33.378Z,100117.41
2022-11-05T02:45:15.614Z,100114.97
2022-11-05T02:47:57.352Z,100111.28
2022-11-05T02:50:36.075Z,100107.84
2022-11-05T02:53:15.823Z,100107.22
2022-11-05T02:55:55.612Z,100100.44
2022-11-05T02:58:29.423Z,100103.09
2022-11-05T03:01:06.817Z,100114.47
2022-11-05T03:03:44.157Z,100107.66
2022-11-05T03:06:31.270Z,100106.63
2022-11-05T03:09:33.373Z,100113.41
2022-11-05T03:12:14.111Z,100115.28
2022-11-05T03:14:57.141Z,100112.00
2022-11-05T03:17:37.568Z,100112.66
2022-11-05T03:20:20.587Z,100098.06
2022-11-05T03:22:59.752Z,100085.06
2022-11-05T03:25:38.263Z,100091.25
2022-11-05T03:28:13.464Z,100096.41
2022-11-05T03:30:47.000Z,100092.53
2022-11-05T03:33:23.390Z,100083.25
2022-11-05T03:36:01.886Z,100078.63
2022-11-05T03:38:38.623Z,100074.56
2022-11-05T03:41:14.969Z,100089.34
2022-11-05T03:43:51.519Z,100082.59
2022-11-05T03:46:30.261Z,100087.03
2022-11-05T03:49:05.407Z,100077.34
2022-11-05T03:51:44.245Z,100078.50
2022-11-05T03:54:17.300Z,100082.75
2022-11-05T03:57:01.994Z,100076.63
2022-11-05T03:59:41.592Z,100072.03
2022-11-05T04:02:16.868Z,100078.22
2022-11-05T04:04:50.028Z,100075.22
2022-11-05T04:07:41.972Z,100073.66
2022-11-05T04:10:32.313Z,100057.16
2022-11-05T04:13:22.644Z,100045.75
2022-11-05T04:16:14.461Z,100050.81
2022-11-05T04:18:47.315Z,100041.47
2022-11-05T04:21:37.968Z,100043.03
2022-11-05T04:24:12.852Z,100045.63
2022-11-05T04:26:46.035Z,100044.69
2022-11-05T04:29:35.857Z,100031.78
2022-11-05T04:32:08.648Z,100030.88
2022-11-05T04:34:41.472Z,100031.56
2022-11-05T04:37:14.265Z,100036.31
2022-11-05T04:39:48.505Z,100035.00
2022-11-05T04:42:21.364Z,100024.06
2022-11-05T04:44:54.516Z,100027.25
2022-11-05T04:47:27.446Z,100032.47
2022-11-05T04:50:00.334Z,100032.41
2022-11-05T04:52:33.173Z,100027.97
2022-11-05T04:55:08.466Z,100021.59
2022-11-05T04:57:41.428Z,100023.97
2022-11-05T05:00:15.306Z,100018.66
2022-11-05T05:02:48.821Z,100012.06
2022-11-05T05:05:23.099Z,100012.06
2022-11-05T05:07:55.901Z,100007.19
2022-11-05T05:10:30.123Z,100010.00
2022-11-05T05:13:02.895Z,100016.41
2022-11-05T05:15:35.702Z,100007.38
2022-11-05T05:18:10.263Z,100008.72
2022-11-05T05:21:00.516Z,100008.09
2022-11-05T05:23:33.357Z,100000.13
2022-11-05T05:26:07.755Z,99987.59
2022-11-05T05:28:40.599Z,99991.31
2022-11-05T05:31:13.526Z,99995.06
2022-11-05T05:33:46.452Z,99996.84
2022-11-05T05:36:19.505Z,100000.50
2022-11-05T05:38:52.493Z,99991.34
2022-11-05T05:41:26.768Z,99995.66
2022-11-05T05:43:59.706Z,99981.69
2022-11-05T05:46:32.650Z,99978.97
2022-11-05T05:49:09.582Z,99982.16
2022-11-05T05:51:45.017Z,99986.66
2022-11-05T05:54:18.281Z,99976.84
2022-11-05T05:56:52.513Z,99983.38
2022-11-05T05:59:25.314Z,99976.91
2022-11-05T06:01:58.320Z,99980.28
2022-11-05T06:04:31.184Z,99975.97
2022-11-05T06:07:03.974Z,99970.56
2022-11-05T06:09:36.811Z,99956.31
2022-11-05T06:12:11.011Z,99969.50
2022-11-05T06:14:43.807Z,99970.44
2022-11-05T06:17:16.688Z,99958.38
2022-11-05T06:19:59.838Z,99951.81
2022-11-05T06:22:32.651Z,99952.50
2022-11-05T06:25:06.626Z,99949.41
2022-11-05T06:27:39.579Z,99954.16
2022-11-05T06:30:13.087Z,99950.97
2022-11-05T06:32:46.026Z,99939.09
2022-11-05T06:35:20.486Z,99945.00
2022-11-05T06:37:53.435Z,99949.00
2022-11-05T06:40:26.382Z,99956.34
2022-11-05T06:42:59.339Z,99942.66
2022-11-05T06:45:32.295Z,99950.91
2022-11-05T06:48:05.890Z,99952.03
2022-11-05T06:50:40.224Z,99956.03
2022-11-05T06:53:13.910Z,99948.75
2022-11-05T06:55:47.919Z,99951.66
2022-11-05T06:58:20.806Z,99948.09
2022-11-05T07:00:53.612Z,99945.84
2022-11-05T07:03:27.471Z,99934.22
2022-11-05T07:06:02.152Z,99932.66
2022-11-05T07:08:37.277Z,99931.41
2022-11-05T07:11:10.182Z,99923.06
2022-11-05T07:13:43.070Z,99926.09
2022-11-05T07:16:16.284Z,99918.50
2022-11-05T07:18:49.802Z,99924.13
2022-11-05T07:21:24.185Z,99921.13
2022-11-05T07:23:57.855Z,99928.88
2022-11-05T07:26:34.505Z,99916.63
2022-11-05T07:29:08.440Z,99915.13
2022-11-05T07:31:42.148Z,99914.94
2022-11-05T07:34:16.214Z,99916.28
2022-11-05T07:36:51.259Z,99901.84
2022-11-05T07:39:24.128Z,99890.47
2022-11-05T07:41:58.027Z,99876.72
2022-11-05T07:44:32.146Z,99870.75
2022-11-05T07:47:06.241Z,99868.09
2022-11-05T07:49:40.216Z,99877.47
2022-11-05T07:52:15.295Z,99877.16
2022-11-05T07:54:49.337Z,99877.72
2022-11-05T07:57:22.975Z,99877.09
2022-11-05T07:59:56.825Z,99879.78
2022-11-05T08:02:30.651Z,99875.84
2022-11-05T08:05:04.514Z,99878.13
2022-11-05T08:07:38.752Z,99878.50
2022-11-05T08:10:12.480Z,99876.88
2022-11-05T08:12:45.300Z,99882.69
2022-11-05T08:15:19.549Z,99861.31
2022-11-05T08:18:00.097Z,99866.66
2022-11-05T08:20:34.380Z,99860.03
2022-11-05T08:23:10.281Z,99860.63
2022-11-05T08:25:43.427Z,99864.59
2022-11-05T08:28:17.129Z,99869.19
2022-11-05T08:30:51.804Z,99864.41
2022-11-05T08:33:27.704Z,99855.50
2022-11-05T08:36:05.187Z,99832.00
2022-11-05T08:38:40.221Z,99827.81
2022-11-05T08:41:13.952Z,99823.75
2022-11-05T08:43:46.801Z,99838.03
2022-11-05T08:46:20.640Z,99834.38
2022-11-05T08:48:54.204Z,99814.38
2022-11-05T08:51:28.041Z,99804.75
2022-11-05T08:54:03.031Z,99811.72
2022-11-05T08:56:36.546Z,99807.38
2022-11-05T08:59:10.365Z,99801.06
2022-11-05T09:01:44.327Z,99801.69
2022-11-05T09:04:18.280Z,99802.59
2022-11-05T09:06:51.365Z,99795.22
2022-11-05T09:09:25.793Z,99782.94
2022-11-05T09:12:12.422Z,99784.31
2022-11-05T09:14:46.579Z,99787.44
2022-11-05T09:17:22.329Z,99787.22
2022-11-05T09:19:55.173Z,99786.69
2022-11-05T09:22:28.905Z,99789.69
2022-11-05T09:25:03.114Z,99788.25
2022-11-05T09:27:37.376Z,99794.13
2022-11-05T09:30:13.310Z,99787.91
2022-11-05T09:32:47.335Z,99774.66
2022-11-05T09:35:20.974Z,99769.88
2022-11-05T09:37:59.709Z,99765.63
2022-11-05T09:40:43.254Z,99761.50
2022-11-05T09:43:20.444Z,99745.50
2022-11-05T09:45:59.925Z,99743.06
2022-11-05T09:48:35.237Z,99743.34
2022-11-05T09:51:10.230Z,99747.16
2022-11-05T09:53:46.045Z,99738.78
2022-11-05T09:56:28.195Z,99738.38
2022-11-05T09:59:04.883Z,99734.53
2022-11-05T10:01:39.320Z,99736.28
2022-11-05T10:04:21.173Z,99743.06
2022-11-05T10:07:00.023Z,99724.59
2022-11-05T10:09:38.955Z,99710.88
2022-11-05T10:12:18.176Z,99708.56
2022-11-05T10:15:00.052Z,99710.13
2022-11-05T10:17:39.062Z,99702.66
2022-11-05T10:20:23.713Z,99701.84
2022-11-05T10:23:00.236Z,99689.72
2022-11-05T10:25:38.466Z,99689.28
2022-11-05T10:28:18.263Z,99694.31
2022-11-05T10:30:54.167Z,99687.78
2022-11-05T10:33:33.960Z,99680.03
2022-11-05T10:36:11.339Z,99687.59
2022-11-05T10:38:45.753Z,99681.31
2022-11-05T10:41:35.559Z,99685.09
2022-11-05T10:44:28.468Z,99693.28
2022-11-05T10:47:19.728Z,99689.31
2022-11-05T10:49:59.999Z,99685.53
2022-11-05T10:52:37.523Z,99678.09
2022-11-05T10:55:19.965Z,99668.75
2022-11-05T10:57:53.920Z,99661.41
2022-11-05T11:00:30.067Z,99670.44
2022-11-05T11:03:06.069Z,99658.41
2022-11-05T11:05:41.359Z,99664.25
2022-11-05T11:08:25.577Z,99656.50
2022-11-05T11:11:00.100Z,99679.22
2022-11-05T11:13:50.759Z,99663.84
2022-11-05T11:16:27.568Z,99661.34
2022-11-05T11:19:03.588Z,99662.41
2022-11-05T11:21:39.282Z,99658.66
2022-11-05T11:24:23.570Z,99660.53
2022-11-05T11:27:02.993Z,99664.09
2022-11-05T11:29:43.892Z,99630.97
2022-11-05T11:32:23.299Z,99639.78
2022-11-05T11:34:58.505Z,99631.03
2022-11-05T11:37:37.482Z,99630.59
2022-11-05T11:40:19.029Z,99620.56
2022-11-05T11:42:56.712Z,99630.81
2022-11-05T11:45:34.755Z,99616.34
2022-11-05T11:48:16.835Z,99616.09
2022-11-05T11:50:51.177Z,99613.44
2022-11-05T11:53:37.040Z,99611.13
2022-11-05T11:56:18.158Z,99600.19
2022-11-05T11:58:52.879Z,99599.19
2022-11-05T12:01:51.499Z,99600.03
2022-11-05T12:05:03.806Z,99615.97
2022-11-05T12:07:49.169Z,99597.09
2022-11-05T12:10:49.166Z,99604.19
2022-11-05T12:14:02.578Z,99599.59
2022-11-05T12:17:11.402Z,99576.97
2022-11-05T12:20:10.297Z,99589.13
2022-11-05T12:23:08.830Z,99595.81
2022-11-05T12:25:51.633Z,99587.22
2022-11-05T12:29:12.260Z,99585.34
2022-11-05T12:31:50.728Z,99566.91
2022-11-05T12:34:39.090Z,99568.56
2022-11-05T12:37:27.951Z,99562.66
2022-11-05T12:40:44.037Z,99553.19
2022-11-05T12:43:31.445Z,99542.97
2022-11-05T12:46:20.096Z,99532.50
2022-11-05T12:49:18.978Z,99523.28
2022-11-05T12:52:07.283Z,99519.66
2022-11-05T12:55:01.133Z,99517.19
2022-11-05T12:57:39.079Z,99513.91
2022-11-05T13:00:19.637Z,99509.63
2022-11-05T13:02:57.847Z,99499.63
2022-11-05T13:05:38.180Z,99493.69
2022-11-05T13:08:17.498Z,99508.03
2022-11-05T13:10:56.651Z,99502.88
2022-11-05T13:13:38.233Z,99493.06
2022-11-05T13:16:20.787Z,99487.91
2022-11-05T13:18:58.371Z,99481.06
2022-11-05T13:21:32.928Z,99477.09
2022-11-05T13:24:12.879Z,99472.97
2022-11-05T13:26:53.828Z,99479.84
2022-11-05T13:29:34.383Z,99466.69
2022-11-05T13:32:27.472Z,99453.31
2022-11-05T13:35:04.442Z,99458.91
2022-11-05T13:37:56.069Z,99454.50
2022-11-05T13:40:41.753Z,99444.69
2022-11-05T13:43:43.569Z,99449.50
2022-11-05T13:46:30.589Z,99438.75
2022-11-05T13:49:27.265Z,99440.53
2022-11-05T13:52:20.152Z,99436.28
2022-11-05T13:55:26.234Z,99429.06
2022-11-05T13:58:15.547Z,99424.91
2022-11-05T14:01:07.277Z,99423.72
2022-11-05T14:03:46.706Z,99420.66
2022-11-05T14:06:26.729Z,99422.75
2022-11-05T14:09:03.980Z,99417.91
2022-11-05T14:11:42.229Z,99410.69
2022-11-05T14:14:21.204Z,99408.19
2022-11-05T14:17:14.596Z,99410.06
2022-11-05T14:20:06.907Z,99402.31
2022-11-05T14:22:43.476Z,99401.06
2022-11-05T14:25:49.835Z,99394.59
2022-11-05T14:28:45.613Z,99404.44
2022-11-05T14:31:54.476Z,99397.66
2022-11-05T14:34:46.526Z,99396.41
2022-11-05T14:37:41.733Z,99392.91
2022-11-05T14:40:32.294Z,99388.69
2022-11-05T14:43:09.574Z,99389.72
2022-11-05T14:45:55.903Z,99385.53
2022-11-05T14:48:39.004Z,99387.34
2022-11-05T14:51:28.213Z,99387.56
2022-11-05T14:54:05.145Z,99386.84
2022-11-05T14:56:46.158Z,99378.94
2022-11-05T14:59:53.179Z,99379.81
2022-11-05T15:02:29.528Z,99386.84
2022-11-05T15:05:41.136Z,99381.03
2022-11-05T15:08:37.485Z,99381.69
2022-11-05T15:11:16.045Z,99378.66
2022-11-05T15:14:02.698Z,99370.34
2022-11-05T15:16:41.496Z,99370.22
2022-11-05T15:19:21.498Z,99362.69
2022-11-05T15:21:57.739Z,99357.16
2022-11-05T15:24:33.436Z,99351.81
2022-11-05T15:27:15.527Z,99359.88
2022-11-05T15:29:49.699Z,99352.41
2022-11-05T15:32:26.682Z,99347.50
2022-11-05T15:34:59.672Z,99350.69
2022-11-05T15:37:32.609Z,99337.06
2022-11-05T15:40:24.702Z,99348.38
2022-11-05T15:43:21.062Z,99352.06
2022-11-05T15:46:02.646Z,99354.28
2022-11-05T15:48:36.982Z,99354.06
2022-11-05T15:51:11.785Z,99436.09
2022-11-05T15:54:30.661Z,99436.84
2022-11-05T15:56:57.233Z,99459.63
2022-11-05T15:59:31.321Z,99459.47
2022-11-05T16:02:31.246Z,99449.41
2022-11-05T16:05:11.494Z,99452.72
2022-11-05T16:07:46.081Z,99457.59
2022-11-05T16:10:21.478Z,99458.22
2022-11-05T16:12:55.908Z,99458.38
2022-11-05T16:15:33.074Z,99458.78
2022-11-05T16:18:24.010Z,99454.22
2022-11-05T16:21:09.068Z,99462.41
2022-11-05T16:23:45.919Z,99463.44
2022-11-05T16:29:36.486Z,99475.38
2022-11-05T16:32:17.995Z,99469.28
2022-11-05T16:34:53.883Z,99467.22
2022-11-05T16:37:28.929Z,99473.06
2022-11-05T16:40:03.666Z,99472.44
2022-11-05T16:42:40.098Z,99477.25
2022-11-05T16:45:17.698Z,99476.00
2022-11-05T16:47:51.466Z,99464.72
2022-11-05T16:50:27.257Z,99460.72
2022-11-05T16:53:01.217Z,99471.78
2022-11-05T16:55:35.763Z,99473.47
2022-11-05T16:58:19.576Z,99476.81
2022-11-05T17:00:58.770Z,99465.53
2022-11-05T17:03:31.910Z,99477.44
2022-11-05T17:06:06.478Z,99473.69
2022-11-05T17:08:39.799Z,99476.19
2022-11-05T17:11:15.704Z,99474.06
2022-11-05T17:13:49.363Z,99485.41
2022-11-05T17:16:23.652Z,99494.81
2022-11-05T17:18:57.267Z,99488.75
2022-11-05T17:21:30.940Z,99500.88
2022-11-05T17:24:04.621Z,99501.50
2022-11-05T17:26:38.237Z,99505.91
2022-11-05T17:29:11.719Z,99506.56
2022-11-05T17:31:46.731Z,99504.91
2022-11-05T17:34:19.636Z,99514.94
2022-11-05T17:36:52.571Z,99502.38
2022-11-05T17:39:31.359Z,99510.31
2022-11-05T17:42:04.730Z,99516.63
2022-11-05T17:44:37.904Z,99509.50
2022-11-05T17:47:13.039Z,99517.47
2022-11-05T17:49:47.434Z,99520.78
2022-11-05T17:52:21.093Z,99524.56
2022-11-05T17:54:54.766Z,99524.09
2022-11-05T17:57:29.506Z,99530.59
2022-11-05T18:00:03.151Z,99519.09
2022-11-05T18:02:38.884Z,99526.81
2022-11-05T18:05:13.590Z,99520.84
2022-11-05T18:07:48.188Z,99525.19
2022-11-05T18:10:21.911Z,99535.22
2022-11-05T18:12:55.626Z,99534.63
2022-11-05T18:15:29.171Z,99532.34
2022-11-05T18:18:04.282Z,99539.00
2022-11-05T18:20:39.313Z,99549.03
2022-11-05T18:23:13.607Z,99535.78
2022-11-05T18:25:47.397Z,99536.00
2022-11-05T18:28:21.007Z,99542.84
2022-11-05T18:30:54.782Z,99544.03
2022-11-05T18:33:30.028Z,99551.34
2022-11-05T18:36:03.777Z,99546.38
2022-11-05T18:38:37.488Z,99552.19
2022-11-05T18:41:11.089Z,99539.78
2022-11-05T18:43:44.430Z,99546.41
2022-11-05T18:46:43.156Z,99548.44
2022-11-05T18:49:13.650Z,99552.88
2022-11-05T18:51:46.606Z,99552.44
2022-11-05T18:54:19.856Z,99558.25
2022-11-05T18:56:52.799Z,99556.91
2022-11-05T18:59:41.194Z,99567.00
2022-11-05T19:02:15.710Z,99561.56
2022-11-05T19:05:22.088Z,99565.78
2022-11-05T19:07:42.896Z,99565.78
2022-11-05T19:10:16.053Z,99563.28
2022-11-05T19:12:48.886Z,99575.19
2022-11-05T19:15:22.580Z,99568.28
2022-11-05T19:17:56.150Z,99574.25
2022-11-05T19:20:35.106Z,99572.03
2022-11-05T19:23:10.973Z,99563.22
2022-11-05T19:25:46.123Z,99571.91
2022-11-05T19:28:19.656Z,99574.38
2022-11-05T19:30:53.704Z,99576.88
2022-11-05T19:33:27.998Z,99578.09
2022-11-05T19:36:07.270Z,99574.44
2022-11-05T19:38:41.479Z,99582.50
2022-11-05T19:41:15.576Z,99581.59
2022-11-05T19:43:50.312Z,99579.47
2022-11-05T19:46:25.152Z,99579.78
2022-11-05T19:48:59.204Z,99582.63
2022-11-05T19:51:34.748Z,99584.66
2022-11-05T19:54:08.734Z,99569.84
2022-11-05T19:56:42.082Z,99577.66
2022-11-05T19:59:15.686Z,99579.97
2022-11-05T20:01:49.520Z,99580.56
2022-11-05T20:04:22.459Z,99573.59
2022-11-05T20:06:57.597Z,99575.97
2022-11-05T20:09:31.168Z,99562.06
2022-11-05T20:12:04.561Z,99558.88
2022-11-05T20:14:38.462Z,99553.56
2022-11-05T20:17:12.136Z,99562.97
2022-11-05T20:19:45.685Z,99560.91
2022-11-05T20:22:21.150Z,99571.66
2022-11-05T20:24:54.821Z,99566.72
2022-11-05T20:27:28.686Z,99569.22
2022-11-05T20:30:02.208Z,99567.25
2022-11-05T20:32:36.063Z,99566.72
2022-11-05T20:35:10.027Z,99569.28
2022-11-05T20:37:45.049Z,99575.44
2022-11-05T20:40:21.030Z,99584.50
2022-11-05T20:42:53.909Z,99570.84
2022-11-05T20:45:27.584Z,99563.00
2022-11-05T20:48:00.526Z,99555.22
2022-11-05T20:50:34.053Z,99558.38
2022-11-05T20:53:09.197Z,99547.78
2022-11-05T20:55:44.488Z,99543.94
2022-11-05T20:58:19.244Z,99546.28
2022-11-05T21:00:55.422Z,99544.81
2022-11-05T21:03:28.307Z,99545.56
2022-11-05T21:06:05.927Z,99539.91
2022-11-05T21:08:41.407Z,99538.59
2022-11-05T21:11:15.214Z,99543.25
2022-11-05T21:13:49.610Z,99544.66
2022-11-05T21:16:23.611Z,99546.88
2022-11-05T21:18:57.014Z,99553.88
2022-11-05T21:21:29.943Z,99550.25
2022-11-05T21:24:04.153Z,99544.53
2022-11-05T21:26:37.644Z,99543.88
2022-11-05T21:29:10.758Z,99549.97
2022-11-05T21:31:43.904Z,99553.34
2022-11-05T21:34:17.984Z,99561.66
2022-11-05T21:36:51.585Z,99559.88
2022-11-05T21:39:28.043Z,99551.84
2022-11-05T21:42:01.985Z,99550.06
2022-11-05T21:44:35.716Z,99553.34
2022-11-05T21:47:09.804Z,99541.56
2022-11-05T21:49:43.676Z,99548.19
2022-11-05T21:52:36.431Z,99542.97
2022-11-05T21:55:31.336Z,99539.78
2022-11-05T21:58:45.127Z,99540.63
2022-11-05T22:01:18.194Z,99534.13
2022-11-05T22:03:51.861Z,99529.25
2022-11-05T22:06:25.508Z,99532.50
2022-11-05T22:08:59.124Z,99538.84
2022-11-05T22:11:37.104Z,99539.78
2022-11-05T22:14:10.709Z,99531.84
2022-11-05T22:16:43.933Z,99530.53
2022-11-05T22:19:17.563Z,99536.06
2022-11-05T22:21:51.451Z,99529.44
2022-11-05T22:24:25.734Z,99522.25
2022-11-05T22:27:01.313Z,99524.13
2022-11-05T22:29:35.008Z,99513.75
2022-11-05T22:32:08.857Z,99519.91
2022-11-05T22:34:42.695Z,99522.34
2022-11-05T22:37:16.690Z,99513.75
2022-11-05T22:39:50.329Z,99513.19
2022-11-05T22:42:24.977Z,99517.19
2022-11-05T22:44:59.214Z,99515.59
2022-11-05T22:47:32.977Z,99511.47
2022-11-05T22:50:06.979Z,99510.91
2022-11-05T22:52:40.601Z,99509.41
2022-11-05T22:55:13.633Z,99507.91
2022-11-05T22:57:48.567Z,99502.22
2022-11-05T23:00:22.903Z,99490.25
2022-11-05T23:02:56.068Z,99497.72
2022-11-05T23:05:29.362Z,99496.25
2022-11-05T23:08:19.761Z,99499.38
2022-11-05T23:11:09.934Z,99488.72
2022-11-05T23:13:44.137Z,99489.56
2022-11-05T23:16:34.166Z,99486.88
2022-11-05T23:19:24.657Z,99486.09
2022-11-05T23:22:15.344Z,99479.53
2022-11-05T23:24:49.319Z,99479.53
2022-11-05T23:27:23.122Z,99471.59
2022-11-05T23:30:00.767Z,99458.09
2022-11-05T23:32:34.297Z,99459.50
2022-11-05T23:35:08.148Z,99459.69
2022-11-05T23:37:58.655Z,99454.94
2022-11-05T23:40:54.546Z,99455.47
2022-11-05T23:43:45.252Z,99433.50
2022-11-05T23:46:37.641Z,99440.66
2022-11-05T23:49:11.171Z,99444.69
2022-11-05T23:51:44.817Z,99447.75
2022-11-05T23:54:18.355Z,99452.88
2022-11-05T23:56:51.236Z,99442.06
2022-11-05T23:59:24.550Z,99440.84
